createdAt,value
2023-09-08T00:02:11.287Z,8.93
2023-09-08T00:04:39.493Z,7.47
2023-09-08T00:07:07.773Z,9.50
2023-09-08T00:09:35.982Z,11.93
2023-09-08T00:12:04.159Z,8.50
2023-09-08T00:14:33.583Z,9.80
2023-09-08T00:17:01.725Z,8.30
2023-09-08T00:19:29.836Z,8.27
2023-09-08T00:21:59.582Z,9.83
2023-09-08T00:24:27.685Z,9.33
2023-09-08T00:26:55.860Z,10.27
2023-09-08T00:29:23.995Z,12.53
2023-09-08T00:31:53.459Z,12.90
2023-09-08T00:34:21.594Z,9.80
2023-09-08T00:36:49.753Z,9.93
2023-09-08T00:39:17.960Z,10.30
2023-09-08T00:41:45.140Z,11.77
2023-09-08T00:44:13.327Z,9.43
2023-09-08T00:46:41.875Z,12.40
2023-09-08T00:49:12.494Z,9.93
2023-09-08T00:51:40.657Z,10.17
2023-09-08T00:54:08.913Z,11.60
2023-09-08T00:56:39.268Z,12.53
2023-09-08T00:59:08.883Z,11.17
2023-09-08T01:01:37.068Z,12.30
2023-09-08T01:04:05.525Z,10.40
2023-09-08T01:06:35.645Z,9.43
2023-09-08T01:09:04.428Z,9.67
2023-09-08T01:11:33.320Z,9.10
2023-09-08T01:14:01.584Z,9.47
2023-09-08T01:16:29.961Z,8.80
2023-09-08T01:19:00.112Z,9.33
2023-09-08T01:21:55.941Z,9.77
2023-09-08T01:24:50.071Z,9.87
2023-09-08T01:27:23.574Z,9.40
2023-09-08T01:29:52.916Z,9.30
2023-09-08T01:32:21.979Z,9.23
2023-09-08T01:34:50.468Z,8.80
2023-09-08T01:37:18.547Z,9.30
2023-09-08T01:39:46.556Z,8.90
2023-09-08T01:42:14.627Z,9.90
2023-09-08T01:44:44.071Z,8.90
2023-09-08T01:47:12.151Z,9.70
2023-09-08T01:49:40.292Z,11.77
2023-09-08T01:52:08.334Z,9.33
2023-09-08T01:54:36.529Z,9.73
2023-09-08T01:57:04.817Z,10.40
2023-09-08T01:59:32.920Z,9.60
2023-09-08T02:02:02.689Z,10.60
2023-09-08T02:04:30.940Z,12.37
2023-09-08T02:06:59.489Z,10.10
2023-09-08T02:09:33.226Z,8.37
2023-09-08T02:12:01.420Z,9.03
2023-09-08T02:14:29.759Z,10.50
2023-09-08T02:16:58.250Z,13.70
2023-09-08T02:19:27.773Z,9.77
2023-09-08T02:21:56.044Z,10.17
2023-09-08T02:24:24.255Z,9.93
2023-09-08T02:26:52.787Z,9.60
2023-09-08T02:29:20.822Z,9.70
2023-09-08T02:31:48.885Z,9.60
2023-09-08T02:34:17.429Z,10.43
2023-09-08T02:36:48.718Z,10.00
2023-09-08T02:39:17.203Z,9.97
2023-09-08T02:41:45.302Z,8.43
2023-09-08T02:44:13.339Z,8.20
2023-09-08T02:46:41.456Z,10.73
2023-09-08T02:49:09.699Z,9.53
2023-09-08T02:51:37.848Z,7.93
2023-09-08T02:54:07.970Z,9.17
2023-09-08T02:56:36.555Z,9.40
2023-09-08T02:59:04.721Z,9.80
2023-09-08T03:01:33.283Z,8.77
2023-09-08T03:04:01.727Z,9.50
2023-09-08T03:06:29.866Z,9.40
2023-09-08T03:08:58.006Z,9.00
2023-09-08T03:11:27.402Z,8.50
2023-09-08T03:13:55.567Z,10.40
2023-09-08T03:16:23.715Z,8.37
2023-09-08T03:18:51.944Z,9.17
2023-09-08T03:21:20.029Z,10.10
2023-09-08T03:23:48.419Z,10.10
2023-09-08T03:26:16.532Z,10.03
2023-09-08T03:28:45.943Z,11.30
2023-09-08T03:31:14.056Z,11.97
2023-09-08T03:33:43.508Z,11.80
2023-09-08T03:36:11.885Z,9.50
2023-09-08T03:38:40.579Z,13.67
2023-09-08T03:41:09.444Z,10.73
2023-09-08T03:43:37.639Z,8.53
2023-09-08T03:46:07.383Z,10.17
2023-09-08T03:48:35.561Z,9.93
2023-09-08T03:51:03.794Z,9.50
2023-09-08T03:53:33.365Z,8.73
2023-09-08T03:56:05.591Z,12.20
2023-09-08T03:58:33.721Z,9.50
2023-09-08T04:01:01.989Z,11.10
2023-09-08T04:03:31.479Z,10.97
2023-09-08T04:06:00.277Z,9.83
2023-09-08T04:08:28.362Z,9.27
2023-09-08T04:10:56.442Z,11.13
2023-09-08T04:13:24.634Z,10.33
2023-09-08T04:15:52.837Z,12.50
2023-09-08T04:18:21.115Z,9.67
2023-09-08T04:20:50.644Z,10.40
2023-09-08T04:23:18.796Z,10.93
2023-09-08T04:25:47.853Z,10.10
2023-09-08T04:28:15.950Z,12.73
2023-09-08T04:30:44.106Z,11.20
2023-09-08T04:33:12.318Z,12.10
2023-09-08T04:35:40.607Z,10.10
2023-09-08T04:38:10.439Z,10.40
2023-09-08T04:40:38.487Z,9.70
2023-09-08T04:43:06.708Z,9.93
2023-09-08T04:45:37.092Z,13.17
2023-09-08T04:48:06.210Z,10.03
2023-09-08T04:50:34.656Z,10.23
2023-09-08T04:53:02.760Z,10.37
2023-09-08T04:55:37.618Z,11.33
2023-09-08T04:58:05.991Z,9.50
2023-09-08T05:00:36.745Z,11.80
2023-09-08T05:03:05.258Z,10.37
2023-09-08T05:05:33.434Z,11.00
2023-09-08T05:08:01.498Z,12.43
2023-09-08T05:10:29.644Z,10.10
2023-09-08T05:12:59.057Z,9.03
2023-09-08T05:15:27.190Z,10.17
2023-09-08T05:17:55.410Z,9.70
2023-09-08T05:20:23.503Z,9.60
2023-09-08T05:22:51.635Z,9.30
2023-09-08T05:25:19.811Z,9.97
2023-09-08T05:27:48.023Z,10.90
2023-09-08T05:30:17.755Z,10.53
2023-09-08T05:32:45.979Z,10.77
2023-09-08T05:35:14.169Z,10.37
2023-09-08T05:37:42.299Z,10.70
2023-09-08T05:40:10.987Z,11.80
2023-09-08T05:42:39.072Z,9.90
2023-09-08T05:45:08.336Z,8.90
2023-09-08T05:47:38.057Z,10.30
2023-09-08T05:50:07.011Z,9.90
2023-09-08T05:52:35.298Z,9.50
2023-09-08T05:55:04.229Z,10.07
2023-09-08T05:57:32.554Z,10.23
2023-09-08T06:00:00.700Z,9.77
2023-09-08T06:02:28.988Z,11.83
2023-09-08T06:04:58.520Z,10.67
2023-09-08T06:07:26.645Z,11.93
2023-09-08T06:09:54.803Z,12.47
2023-09-08T06:12:22.988Z,13.80
2023-09-08T06:14:51.206Z,11.70
2023-09-08T06:17:19.415Z,12.63
2023-09-08T06:19:47.597Z,9.30
2023-09-08T06:22:17.093Z,10.87
2023-09-08T06:24:45.213Z,10.67
2023-09-08T06:27:14.217Z,15.20
2023-09-08T06:29:44.526Z,10.10
2023-09-08T06:32:12.959Z,8.63
2023-09-08T06:34:41.105Z,10.73
2023-09-08T06:37:09.608Z,12.07
2023-09-08T06:39:39.131Z,9.83
2023-09-08T06:42:07.390Z,14.83
2023-09-08T06:44:35.503Z,11.83
2023-09-08T06:47:04.440Z,11.90
2023-09-08T06:49:32.572Z,11.60
2023-09-08T06:52:00.723Z,10.13
2023-09-08T06:54:28.879Z,14.33
2023-09-08T06:56:58.364Z,13.07
2023-09-08T06:59:26.528Z,9.20
2023-09-08T07:01:54.749Z,11.87
2023-09-08T07:04:23.118Z,11.93
2023-09-08T07:06:52.886Z,13.53
2023-09-08T07:09:21.046Z,15.40
2023-09-08T07:11:49.110Z,10.27
2023-09-08T07:14:18.537Z,8.63
2023-09-08T07:16:46.721Z,8.97
2023-09-08T07:19:14.855Z,13.23
2023-09-08T07:21:42.933Z,9.50
2023-09-08T07:24:11.185Z,8.90
2023-09-08T07:26:39.317Z,9.93
2023-09-08T07:29:07.390Z,9.30
2023-09-08T07:31:36.819Z,9.10
2023-09-08T07:34:05.016Z,10.63
2023-09-08T07:36:33.133Z,9.93
2023-09-08T07:39:01.349Z,9.90
2023-09-08T07:41:29.451Z,8.17
2023-09-08T07:43:57.693Z,9.93
2023-09-08T07:46:25.992Z,11.27
2023-09-08T07:48:55.827Z,10.47
2023-09-08T07:51:23.943Z,9.67
2023-09-08T07:53:52.225Z,8.80
2023-09-08T07:56:20.357Z,11.00
2023-09-08T07:58:48.483Z,8.97
2023-09-08T08:01:17.179Z,8.97
2023-09-08T08:03:45.295Z,8.33
2023-09-08T08:06:14.879Z,12.77
2023-09-08T08:08:42.981Z,11.07
2023-09-08T08:11:12.615Z,9.30
2023-09-08T08:13:40.748Z,11.17
2023-09-08T08:16:09.365Z,9.07
2023-09-08T08:18:37.855Z,10.63
2023-09-08T08:21:08.960Z,8.00
2023-09-08T08:23:40.091Z,8.20
2023-09-08T08:26:08.985Z,8.63
2023-09-08T08:28:37.479Z,7.83
2023-09-08T08:31:06.023Z,8.53
2023-09-08T08:33:34.461Z,11.63
2023-09-08T08:36:02.681Z,11.17
2023-09-08T08:38:30.933Z,8.63
2023-09-08T08:41:06.385Z,8.10
2023-09-08T08:43:35.027Z,9.50
2023-09-08T08:46:05.344Z,7.97
2023-09-08T08:48:34.748Z,9.50
2023-09-08T08:51:04.804Z,10.67
2023-09-08T08:53:33.818Z,8.77
2023-09-08T08:56:02.417Z,7.80
2023-09-08T08:58:31.893Z,8.30
2023-09-08T09:01:01.498Z,7.60
2023-09-08T09:03:30.014Z,9.00
2023-09-08T09:06:00.225Z,10.53
2023-09-08T09:08:29.966Z,9.40
2023-09-08T09:10:58.077Z,10.60
2023-09-08T09:13:26.343Z,7.53
2023-09-08T09:16:01.048Z,9.27
2023-09-08T09:18:31.505Z,7.50
2023-09-08T09:21:01.753Z,8.53
2023-09-08T09:23:31.169Z,8.07
2023-09-08T09:26:00.003Z,8.83
2023-09-08T09:28:31.146Z,7.47
2023-09-08T09:31:02.140Z,8.70
2023-09-08T09:33:32.144Z,9.70
2023-09-08T09:36:00.462Z,8.30
2023-09-08T09:38:29.537Z,8.43
2023-09-08T09:40:57.830Z,7.77
2023-09-08T09:43:25.977Z,7.60
2023-09-08T09:45:55.566Z,7.80
2023-09-08T09:48:25.959Z,9.53
2023-09-08T09:50:54.787Z,10.33
2023-09-08T09:53:23.418Z,7.57
2023-09-08T09:55:51.903Z,6.87
2023-09-08T09:58:23.070Z,7.53
2023-09-08T10:00:53.224Z,6.83
2023-09-08T10:03:22.149Z,7.03
2023-09-08T10:05:52.045Z,8.47
2023-09-08T10:08:20.215Z,8.77
2023-09-08T10:10:51.379Z,7.00
2023-09-08T10:13:25.810Z,10.13
2023-09-08T10:15:56.847Z,9.57
2023-09-08T10:18:26.563Z,7.50
2023-09-08T10:20:58.614Z,8.53
2023-09-08T10:23:36.255Z,7.23
2023-09-08T10:26:07.994Z,7.03
2023-09-08T10:28:38.211Z,7.60
2023-09-08T10:31:07.755Z,6.80
2023-09-08T10:33:37.978Z,6.93
2023-09-08T10:36:08.682Z,6.83
2023-09-08T10:38:37.511Z,7.57
2023-09-08T10:41:30.055Z,7.60
2023-09-08T10:44:00.556Z,7.63
2023-09-08T10:46:30.860Z,7.77
2023-09-08T10:49:04.603Z,8.80
2023-09-08T10:51:34.501Z,7.60
2023-09-08T10:54:03.225Z,7.20
2023-09-08T10:56:50.008Z,8.07
2023-09-08T10:59:18.309Z,9.73
2023-09-08T11:01:47.328Z,8.20
2023-09-08T11:04:20.309Z,7.83
2023-09-08T11:06:51.490Z,8.03
2023-09-08T11:09:19.578Z,7.20
2023-09-08T11:11:47.754Z,7.50
2023-09-08T11:14:16.732Z,8.90
2023-09-08T11:16:45.378Z,8.37
2023-09-08T11:19:13.739Z,7.40
2023-09-08T11:21:42.627Z,7.13
2023-09-08T11:24:15.963Z,7.63
2023-09-08T11:26:47.529Z,7.17
2023-09-08T11:29:15.851Z,6.77
2023-09-08T11:31:45.450Z,7.43
2023-09-08T11:34:15.810Z,7.47
2023-09-08T11:36:43.971Z,7.20
2023-09-08T11:39:13.421Z,8.50
2023-09-08T11:41:41.870Z,8.17
2023-09-08T11:44:10.087Z,7.37
2023-09-08T11:46:38.368Z,7.30
2023-09-08T11:49:06.814Z,7.93
2023-09-08T11:51:34.978Z,8.43
2023-09-08T11:54:03.637Z,7.80
2023-09-08T11:56:33.327Z,7.57
2023-09-08T11:59:02.115Z,13.90
2023-09-08T12:01:51.657Z,8.70
2023-09-08T12:04:21.424Z,8.40
2023-09-08T12:06:50.813Z,7.10
2023-09-08T12:09:19.342Z,6.97
2023-09-08T12:11:49.151Z,7.17
2023-09-08T12:14:17.882Z,8.57
2023-09-08T12:16:46.245Z,7.50
2023-09-08T12:19:32.397Z,7.87
2023-09-08T12:22:03.830Z,7.63
2023-09-08T12:25:00.117Z,6.90
2023-09-08T12:27:29.770Z,8.20
2023-09-08T12:29:58.520Z,8.10
2023-09-08T12:32:27.580Z,7.37
2023-09-08T12:34:55.752Z,7.53
2023-09-08T12:37:24.102Z,7.23
2023-09-08T12:39:52.636Z,7.60
2023-09-08T12:42:21.606Z,6.83
2023-09-08T12:44:51.197Z,7.40
2023-09-08T12:47:19.490Z,7.70
2023-09-08T12:49:47.741Z,7.67
2023-09-08T12:52:15.796Z,7.60
2023-09-08T12:54:43.853Z,7.43
2023-09-08T12:57:12.008Z,6.63
2023-09-08T12:59:40.051Z,7.17
2023-09-08T13:02:09.459Z,7.37
2023-09-08T13:04:37.524Z,7.80
2023-09-08T13:07:06.024Z,7.10
2023-09-08T13:09:34.193Z,7.90
2023-09-08T13:12:02.312Z,7.23
2023-09-08T13:14:30.356Z,7.30
2023-09-08T13:16:58.488Z,7.37
2023-09-08T13:19:27.929Z,7.00
2023-09-08T13:21:56.045Z,7.10
2023-09-08T13:24:24.093Z,7.40
2023-09-08T13:26:52.147Z,7.13
2023-09-08T13:29:20.745Z,10.10
2023-09-08T13:31:49.100Z,6.60
2023-09-08T13:34:17.205Z,8.03
2023-09-08T13:36:46.828Z,6.70
2023-09-08T13:39:15.028Z,7.00
2023-09-08T13:41:51.120Z,7.43
2023-09-08T13:44:20.243Z,7.33
2023-09-08T13:46:49.125Z,6.37
2023-09-08T13:49:18.228Z,7.47
2023-09-08T13:51:50.079Z,6.27
2023-09-08T13:54:20.607Z,6.57
2023-09-08T13:57:01.206Z,6.40
2023-09-08T13:59:35.261Z,7.20
2023-09-08T14:02:23.143Z,6.67
2023-09-08T14:04:55.659Z,5.83
2023-09-08T14:07:27.815Z,6.77
2023-09-08T14:10:06.182Z,5.90
2023-09-08T14:12:44.186Z,8.77
2023-09-08T14:15:16.444Z,5.90
2023-09-08T14:17:44.650Z,6.50
2023-09-08T14:20:13.608Z,6.40
2023-09-08T14:22:43.241Z,7.90
2023-09-08T14:25:11.450Z,6.10
2023-09-08T14:27:39.594Z,6.50
2023-09-08T14:30:09.104Z,7.27
2023-09-08T14:32:37.209Z,7.40
2023-09-08T14:35:06.193Z,6.17
2023-09-08T14:37:35.123Z,6.73
2023-09-08T14:40:04.980Z,6.40
2023-09-08T14:42:33.215Z,6.20
2023-09-08T14:45:01.283Z,6.87
2023-09-08T14:47:29.416Z,6.60
2023-09-08T14:49:58.414Z,5.87
2023-09-08T14:52:26.501Z,6.27
2023-09-08T14:54:54.671Z,6.37
2023-09-08T14:57:24.187Z,6.40
2023-09-08T14:59:55.338Z,6.20
2023-09-08T15:02:23.684Z,5.50
2023-09-08T15:04:51.795Z,7.00
2023-09-08T15:07:19.857Z,8.10
2023-09-08T15:09:47.937Z,5.13
2023-09-08T15:12:16.041Z,6.50
2023-09-08T15:14:45.437Z,6.93
2023-09-08T15:17:13.991Z,6.03
2023-09-08T15:19:42.188Z,6.43
2023-09-08T15:22:10.287Z,5.90
2023-09-08T15:24:38.291Z,5.90
2023-09-08T15:27:06.735Z,6.47
2023-09-08T15:29:34.907Z,5.90
2023-09-08T15:32:04.791Z,6.87
2023-09-08T15:34:32.977Z,7.23
2023-09-08T15:37:01.480Z,6.20
2023-09-08T15:39:29.596Z,6.93
2023-09-08T15:41:57.728Z,5.60
2023-09-08T15:44:25.823Z,6.10
2023-09-08T15:46:53.896Z,5.60
2023-09-08T15:49:23.533Z,7.80
2023-09-08T15:51:57.230Z,7.17
2023-09-08T15:54:32.820Z,7.00
2023-09-08T15:57:00.951Z,6.23
2023-09-08T15:59:29.365Z,6.80
2023-09-08T16:01:57.512Z,7.10
2023-09-08T16:04:27.693Z,6.00
2023-09-08T16:06:55.855Z,6.33
2023-09-08T16:09:24.008Z,6.47
2023-09-08T16:11:52.283Z,8.20
2023-09-08T16:14:20.340Z,6.80
2023-09-08T16:16:48.446Z,6.83
2023-09-08T16:19:17.745Z,5.90
2023-09-08T16:21:47.135Z,6.40
2023-09-08T16:24:15.259Z,5.77
2023-09-08T16:26:43.434Z,6.30
2023-09-08T16:29:11.573Z,7.40
2023-09-08T16:31:39.694Z,5.30
2023-09-08T16:34:07.748Z,7.07
2023-09-08T16:36:35.832Z,6.40
2023-09-08T16:39:05.752Z,5.60
2023-09-08T16:41:33.858Z,6.20
2023-09-08T16:44:01.908Z,6.63
2023-09-08T16:46:29.950Z,5.70
2023-09-08T16:48:58.038Z,5.90
2023-09-08T16:51:29.078Z,6.63
2023-09-08T16:53:59.562Z,8.60
2023-09-08T16:56:30.027Z,6.50
2023-09-08T16:58:58.117Z,7.33
2023-09-08T17:01:26.378Z,6.53
2023-09-08T17:03:55.203Z,6.60
2023-09-08T17:06:23.680Z,6.63
2023-09-08T17:08:51.826Z,6.47
2023-09-08T17:11:19.878Z,7.00
2023-09-08T17:13:49.291Z,8.27
2023-09-08T17:16:17.663Z,6.57
2023-09-08T17:18:45.931Z,7.30
2023-09-08T17:21:14.062Z,7.27
2023-09-08T17:23:42.201Z,7.07
2023-09-08T17:26:10.943Z,7.27
2023-09-08T17:28:39.070Z,6.80
2023-09-08T17:31:08.514Z,7.37
2023-09-08T17:33:36.982Z,6.63
2023-09-08T17:36:05.744Z,7.30
2023-09-08T17:38:34.364Z,7.47
2023-09-08T17:41:02.842Z,7.27
2023-09-08T17:43:31.255Z,7.60
2023-09-08T17:46:04.660Z,8.03
2023-09-08T17:48:34.641Z,7.73
2023-09-08T17:51:02.803Z,7.40
2023-09-08T17:53:36.428Z,8.20
2023-09-08T17:56:05.469Z,8.20
2023-09-08T17:58:33.852Z,7.67
2023-09-08T18:01:02.017Z,9.30
2023-09-08T18:03:30.310Z,8.77
2023-09-08T18:05:59.851Z,8.90
2023-09-08T18:08:27.904Z,8.20
2023-09-08T18:11:01.601Z,9.17
2023-09-08T18:13:29.811Z,10.80
2023-09-08T18:15:59.770Z,11.30
2023-09-08T18:18:28.333Z,8.80
2023-09-08T18:20:56.565Z,11.00
2023-09-08T18:23:26.397Z,10.80
2023-09-08T18:25:56.435Z,9.63
2023-09-08T18:28:25.103Z,11.10
2023-09-08T18:30:53.891Z,9.13
2023-09-08T18:33:22.074Z,8.10
2023-09-08T18:35:50.592Z,8.50
2023-09-08T18:38:18.766Z,10.37
2023-09-08T18:40:49.134Z,10.03
2023-09-08T18:43:19.331Z,7.90
2023-09-08T18:45:47.934Z,9.20
2023-09-08T18:48:16.108Z,10.40
2023-09-08T18:50:44.946Z,10.20
2023-09-08T18:53:13.920Z,9.17
2023-09-08T18:55:42.054Z,11.33
2023-09-08T18:58:11.583Z,7.90
2023-09-08T19:00:49.937Z,8.90
2023-09-08T19:03:19.914Z,8.50
2023-09-08T19:05:51.616Z,8.63
2023-09-08T19:08:20.055Z,9.07
2023-09-08T19:10:48.278Z,8.57
2023-09-08T19:13:17.703Z,8.83
2023-09-08T19:15:48.804Z,7.63
2023-09-08T19:18:19.667Z,8.77
2023-09-08T19:20:48.409Z,9.70
2023-09-08T19:23:16.662Z,10.43
2023-09-08T19:25:44.811Z,9.57
2023-09-08T19:28:13.604Z,9.10
2023-09-08T19:30:48.946Z,8.83
2023-09-08T19:33:17.443Z,9.50
2023-09-08T19:35:45.945Z,11.20
2023-09-08T19:38:14.065Z,10.00
2023-09-08T19:40:42.209Z,12.10
2023-09-08T19:43:10.353Z,12.00
2023-09-08T19:45:38.585Z,10.93
2023-09-08T19:48:11.327Z,11.93
2023-09-08T19:50:44.626Z,12.27
2023-09-08T19:53:17.185Z,9.50
2023-09-08T19:55:47.242Z,17.97
2023-09-08T19:58:16.087Z,11.93
2023-09-08T20:00:44.662Z,17.47
2023-09-08T20:03:14.210Z,13.47
2023-09-08T20:05:44.269Z,15.00
2023-09-08T20:08:12.557Z,12.33
2023-09-08T20:10:40.889Z,9.60
2023-09-08T20:13:09.512Z,10.60
2023-09-08T20:15:37.599Z,11.73
2023-09-08T20:18:06.129Z,11.60
2023-09-08T20:20:35.895Z,11.30
2023-09-08T20:23:04.506Z,10.50
2023-09-08T20:25:32.646Z,10.40
2023-09-08T20:28:00.686Z,12.67
2023-09-08T20:30:29.519Z,12.10
2023-09-08T20:32:57.690Z,10.00
2023-09-08T20:35:25.921Z,10.53
2023-09-08T20:37:55.351Z,10.10
2023-09-08T20:40:23.661Z,11.83
2023-09-08T20:42:51.897Z,11.80
2023-09-08T20:45:20.036Z,10.30
2023-09-08T20:47:49.661Z,12.97
2023-09-08T20:50:18.295Z,10.77
2023-09-08T20:52:46.453Z,11.30
2023-09-08T20:55:15.876Z,9.90
2023-09-08T20:57:43.911Z,11.13
2023-09-08T21:00:13.641Z,10.87
2023-09-08T21:02:41.960Z,10.33
2023-09-08T21:05:10.536Z,13.40
2023-09-08T21:07:38.805Z,10.23
2023-09-08T21:10:07.802Z,11.50
2023-09-08T21:12:37.318Z,12.03
2023-09-08T21:15:06.637Z,11.20
2023-09-08T21:17:34.780Z,10.83
2023-09-08T21:20:03.470Z,10.20
2023-09-08T21:22:36.935Z,11.03
2023-09-08T21:25:05.681Z,9.80
2023-09-08T21:27:34.069Z,11.07
2023-09-08T21:30:04.112Z,10.87
2023-09-08T21:32:32.536Z,10.63
2023-09-08T21:35:00.659Z,9.90
2023-09-08T21:37:29.003Z,9.67
2023-09-08T21:39:57.156Z,11.47
2023-09-08T21:42:25.342Z,10.27
2023-09-08T21:44:53.915Z,11.03
2023-09-08T21:47:23.867Z,12.00
2023-09-08T21:49:52.459Z,11.37
2023-09-08T21:52:35.459Z,10.97
2023-09-08T21:55:06.745Z,11.83
2023-09-08T21:57:34.893Z,12.10
2023-09-08T22:00:03.057Z,11.63
2023-09-08T22:02:33.948Z,11.37
2023-09-08T22:05:02.365Z,12.87
2023-09-08T22:07:30.550Z,12.23
2023-09-08T22:09:58.779Z,12.67
2023-09-08T22:12:26.944Z,12.90
2023-09-08T22:14:55.004Z,12.20
2023-09-08T22:17:23.146Z,11.43
2023-09-08T22:19:55.434Z,11.50
2023-09-08T22:22:26.511Z,11.40
2023-09-08T22:24:55.635Z,11.43
2023-09-08T22:27:23.872Z,13.17
2023-09-08T22:29:51.995Z,12.33
2023-09-08T22:32:20.146Z,11.73
2023-09-08T22:34:48.216Z,11.40
2023-09-08T22:37:17.826Z,12.23
2023-09-08T22:39:45.970Z,11.90
2023-09-08T22:42:14.137Z,10.37
2023-09-08T22:44:42.310Z,11.77
2023-09-08T22:47:11.513Z,11.97
2023-09-08T22:49:58.054Z,12.30
2023-09-08T22:52:27.703Z,11.73
2023-09-08T22:55:02.603Z,13.63
2023-09-08T22:57:40.994Z,11.80
2023-09-08T23:00:11.474Z,11.90
2023-09-08T23:02:39.752Z,13.20
2023-09-08T23:05:09.436Z,12.77
2023-09-08T23:07:38.945Z,13.30
2023-09-08T23:10:07.512Z,11.93
2023-09-08T23:12:35.569Z,14.30
2023-09-08T23:15:04.480Z,13.47
2023-09-08T23:17:34.329Z,13.70
2023-09-08T23:20:02.757Z,13.03
2023-09-08T23:22:32.313Z,12.40
2023-09-08T23:25:01.766Z,13.03
2023-09-08T23:27:29.897Z,12.17
2023-09-08T23:29:57.987Z,13.30
2023-09-08T23:32:26.152Z,14.17
2023-09-08T23:34:54.263Z,13.93
2023-09-08T23:37:22.385Z,11.70
2023-09-08T23:39:50.584Z,12.40
2023-09-08T23:42:20.455Z,11.17
2023-09-08T23:44:48.577Z,12.30
2023-09-08T23:47:16.625Z,13.00
2023-09-08T23:49:44.686Z,13.67
2023-09-08T23:52:12.791Z,12.80
2023-09-08T23:54:40.911Z,13.80
2023-09-08T23:57:09.576Z,13.37
2023-09-08T23:59:39.108Z,15.13
